Terminal Aerodrome Forecast
Issued by NWS Lake Charles, LA

Home | Current Version | Previous Version | Text Only | Print | Product List | Glossary On
Versions: 1 2 3 4 5 6 7 8 9 10 11 12 13 14
000
FTUS44 KLCH 181700
TAFAEX
TAF
KAEX 181735Z 1818/1918 09004KT P6SM BKN005 OVC025
     FM182100 07004KT P6SM OVC008
     FM190100 05004KT 6SM BR OVC005
     FM190700 04006KT 6SM BR VCSH OVC004
      TEMPO 1911/1914 3SM SHRA
     FM191400 10007KT 3SM RA OVC004=

USA.gov is the U.S. government's official web portal to all federal, state and local government web resources and services.